createdAt,value
2019-05-19T00:00:27.199Z,91.30
2019-05-19T00:02:57.540Z,91.30
2019-05-19T00:05:28.411Z,91.50
2019-05-19T00:07:58.665Z,91.50
2019-05-19T00:10:28.857Z,91.50
2019-05-19T00:12:58.963Z,91.60
2019-05-19T00:15:29.105Z,91.60
2019-05-19T00:17:59.142Z,91.80
2019-05-19T00:20:29.540Z,91.50
2019-05-19T00:22:59.602Z,91.30
2019-05-19T00:25:29.998Z,91.20
2019-05-19T00:28:00.116Z,91.10
2019-05-19T00:30:31.731Z,91.20
2019-05-19T00:33:01.863Z,91.10
2019-05-19T00:35:32.008Z,91.30
2019-05-19T00:38:02.099Z,91.20
2019-05-19T00:40:32.253Z,91.50
2019-05-19T00:43:02.459Z,92.10
2019-05-19T00:45:32.558Z,91.60
2019-05-19T00:48:03.040Z,91.50
2019-05-19T00:50:33.190Z,91.40
2019-05-19T00:53:03.334Z,91.50
2019-05-19T00:55:33.629Z,91.70
2019-05-19T00:58:04.749Z,91.90
2019-05-19T01:00:34.986Z,91.90
2019-05-19T01:03:05.208Z,92.10
2019-05-19T01:05:35.346Z,92.10
2019-05-19T01:08:05.425Z,92.10
2019-05-19T01:10:35.603Z,92.30
2019-05-19T01:13:05.743Z,91.70
2019-05-19T01:15:35.783Z,92.00
2019-05-19T01:18:06.023Z,92.10
2019-05-19T01:20:36.147Z,92.00
2019-05-19T01:23:06.290Z,91.70
2019-05-19T01:25:36.807Z,91.80
2019-05-19T01:28:07.022Z,91.70
2019-05-19T01:30:37.540Z,91.70
2019-05-19T01:33:08.178Z,91.70
2019-05-19T01:35:38.336Z,91.60
2019-05-19T01:38:08.400Z,91.60
2019-05-19T01:40:38.754Z,91.30
2019-05-19T01:43:09.782Z,90.90
2019-05-19T01:45:39.904Z,90.80
2019-05-19T01:48:10.038Z,90.90
2019-05-19T01:50:40.443Z,91.20
2019-05-19T01:53:10.590Z,91.00
2019-05-19T01:55:40.739Z,91.20
2019-05-19T01:58:11.009Z,91.40
2019-05-19T02:00:41.164Z,91.60
2019-05-19T02:03:11.264Z,91.60
2019-05-19T02:05:41.714Z,91.70
2019-05-19T02:08:11.961Z,91.50
2019-05-19T02:10:42.071Z,91.80
2019-05-19T02:13:12.730Z,91.60
2019-05-19T02:15:42.846Z,91.50
2019-05-19T02:18:13.311Z,91.50
2019-05-19T02:20:43.663Z,91.50
2019-05-19T02:23:13.915Z,91.50
2019-05-19T02:25:44.038Z,91.50
2019-05-19T02:28:14.160Z,91.50
2019-05-19T02:30:44.602Z,91.40
2019-05-19T02:33:14.848Z,91.30
2019-05-19T02:35:45.566Z,91.50
2019-05-19T02:38:15.762Z,91.50
2019-05-19T02:40:51.160Z,91.40
2019-05-19T02:43:22.791Z,91.50
2019-05-19T02:45:57.313Z,91.50
2019-05-19T02:48:29.582Z,91.80
2019-05-19T02:51:01.848Z,91.70
2019-05-19T02:53:33.791Z,91.60
2019-05-19T02:56:04.841Z,91.80
2019-05-19T02:58:35.365Z,92.00
2019-05-19T03:01:05.876Z,92.20
2019-05-19T03:03:35.900Z,92.40
2019-05-19T03:06:09.079Z,92.40
2019-05-19T03:08:39.218Z,92.40
2019-05-19T03:11:10.769Z,92.40
2019-05-19T03:13:41.833Z,92.40
2019-05-19T03:16:12.424Z,92.50
2019-05-19T03:18:42.486Z,92.50
2019-05-19T03:21:12.612Z,92.50
2019-05-19T03:23:42.762Z,92.50
2019-05-19T03:26:13.096Z,92.40
2019-05-19T03:28:43.147Z,92.30
2019-05-19T03:31:30.987Z,92.20
2019-05-19T03:34:01.602Z,92.40
2019-05-19T03:36:31.760Z,92.30
2019-05-19T03:39:02.675Z,92.60
2019-05-19T03:41:33.140Z,92.20
2019-05-19T03:44:03.239Z,92.30
2019-05-19T03:46:33.410Z,92.20
2019-05-19T03:49:03.963Z,92.00
2019-05-19T03:51:34.211Z,91.90
2019-05-19T03:54:04.380Z,91.90
2019-05-19T03:56:34.466Z,92.00
2019-05-19T03:59:04.561Z,92.10
2019-05-19T04:01:34.647Z,92.30
2019-05-19T04:04:04.876Z,92.50
2019-05-19T04:06:34.951Z,92.40
2019-05-19T04:09:07.427Z,92.50
2019-05-19T04:11:37.632Z,92.50
2019-05-19T04:14:07.776Z,92.50
2019-05-19T04:16:37.916Z,92.30
2019-05-19T04:19:07.937Z,92.10
2019-05-19T04:21:48.411Z,92.00
2019-05-19T04:24:11.309Z,92.10
2019-05-19T04:26:41.411Z,92.20
2019-05-19T04:29:11.559Z,92.20
2019-05-19T04:31:41.983Z,92.10
2019-05-19T04:34:12.030Z,92.30
2019-05-19T04:36:42.813Z,92.40
2019-05-19T04:39:12.976Z,92.40
2019-05-19T04:41:43.105Z,92.40
2019-05-19T04:44:13.525Z,92.30
2019-05-19T04:46:43.593Z,92.30
2019-05-19T04:49:13.773Z,92.30
2019-05-19T04:51:43.941Z,92.30
2019-05-19T04:54:14.076Z,92.20
2019-05-19T04:56:44.940Z,92.10
2019-05-19T04:59:14.985Z,92.10
2019-05-19T05:01:45.362Z,92.10
2019-05-19T05:04:15.483Z,92.20
2019-05-19T05:06:49.147Z,92.20
2019-05-19T05:09:20.634Z,92.00
2019-05-19T05:11:51.222Z,92.00
2019-05-19T05:14:21.338Z,91.90
2019-05-19T05:16:52.670Z,91.80
2019-05-19T05:19:22.955Z,91.50
2019-05-19T05:21:53.503Z,91.50
2019-05-19T05:24:24.019Z,91.40
2019-05-19T05:26:54.282Z,91.30
2019-05-19T05:29:24.731Z,91.40
2019-05-19T05:31:55.429Z,91.30
2019-05-19T05:34:25.675Z,91.30
2019-05-19T05:36:57.396Z,91.20
2019-05-19T05:39:28.171Z,91.20
2019-05-19T05:41:58.274Z,91.30
2019-05-19T05:44:29.337Z,91.30
2019-05-19T05:46:59.362Z,91.40
2019-05-19T05:49:29.490Z,91.60
2019-05-19T05:51:59.969Z,91.20
2019-05-19T05:54:30.018Z,91.20
2019-05-19T05:57:00.539Z,91.40
2019-05-19T05:59:33.005Z,90.90
2019-05-19T06:02:03.594Z,90.70
2019-05-19T06:04:33.975Z,90.50
2019-05-19T06:07:04.482Z,90.40
2019-05-19T06:09:36.891Z,90.50
2019-05-19T06:12:08.236Z,90.30
2019-05-19T06:14:38.522Z,90.20
2019-05-19T06:17:10.427Z,90.00
2019-05-19T06:19:40.790Z,89.90
2019-05-19T06:22:11.379Z,89.50
2019-05-19T06:24:41.719Z,88.40
2019-05-19T06:27:12.760Z,87.70
2019-05-19T06:29:43.059Z,88.10
2019-05-19T06:32:25.541Z,88.20
2019-05-19T06:34:55.807Z,88.20
2019-05-19T06:37:27.300Z,86.90
2019-05-19T06:39:58.265Z,86.50
2019-05-19T06:42:28.508Z,86.10
2019-05-19T06:44:59.101Z,85.30
2019-05-19T06:47:29.443Z,84.90
2019-05-19T06:49:59.808Z,84.70
2019-05-19T06:52:29.922Z,84.50
2019-05-19T06:55:00.257Z,84.20
2019-05-19T06:57:31.084Z,85.00
2019-05-19T07:00:01.497Z,83.90
2019-05-19T07:02:32.436Z,83.60
2019-05-19T07:05:02.689Z,83.30
2019-05-19T07:07:33.263Z,81.80
2019-05-19T07:10:03.498Z,82.20
2019-05-19T07:12:34.052Z,82.30
2019-05-19T07:15:04.331Z,82.20
2019-05-19T07:17:34.672Z,82.30
2019-05-19T07:20:05.681Z,82.30
2019-05-19T07:22:37.568Z,82.10
2019-05-19T07:25:08.584Z,82.30
2019-05-19T07:27:39.239Z,82.00
2019-05-19T07:30:09.778Z,81.60
2019-05-19T07:32:40.379Z,81.70
2019-05-19T07:35:10.847Z,82.10
2019-05-19T07:37:42.614Z,82.20
2019-05-19T07:40:13.838Z,81.10
2019-05-19T07:42:44.108Z,80.00
2019-05-19T07:45:14.779Z,79.30
2019-05-19T07:47:44.971Z,79.70
2019-05-19T07:50:15.124Z,78.30
2019-05-19T07:52:46.384Z,77.10
2019-05-19T07:55:18.170Z,76.80
2019-05-19T07:57:48.721Z,76.50
2019-05-19T08:00:19.056Z,76.50
2019-05-19T08:02:49.616Z,77.20
2019-05-19T08:05:21.679Z,78.00
2019-05-19T08:07:52.180Z,76.90
2019-05-19T08:10:22.475Z,77.10
2019-05-19T08:12:52.931Z,77.10
2019-05-19T08:15:24.401Z,77.50
2019-05-19T08:17:55.010Z,78.10
2019-05-19T08:20:25.140Z,78.20
2019-05-19T08:22:55.746Z,78.80
2019-05-19T08:25:26.427Z,79.00
2019-05-19T08:28:06.388Z,78.00
2019-05-19T08:30:28.794Z,76.90
2019-05-19T08:32:59.291Z,76.50
2019-05-19T08:35:29.486Z,76.50
2019-05-19T08:37:59.749Z,76.50
2019-05-19T08:40:30.332Z,76.80
2019-05-19T08:43:00.577Z,76.80
2019-05-19T08:45:30.844Z,76.10
2019-05-19T08:48:01.051Z,75.30
2019-05-19T08:50:32.693Z,74.30
2019-05-19T08:53:04.960Z,73.10
2019-05-19T08:55:35.485Z,72.20
2019-05-19T08:58:05.874Z,71.80
2019-05-19T09:00:39.672Z,71.80
2019-05-19T09:03:11.335Z,69.90
2019-05-19T09:05:42.934Z,67.80
2019-05-19T09:08:13.704Z,67.20
2019-05-19T09:10:43.972Z,67.70
2019-05-19T09:13:18.480Z,67.10
2019-05-19T09:15:49.126Z,65.30
2019-05-19T09:18:19.441Z,65.00
2019-05-19T09:20:51.161Z,62.80
2019-05-19T09:23:23.642Z,60.30
2019-05-19T09:25:54.519Z,59.30
2019-05-19T09:28:24.792Z,59.60
2019-05-19T09:30:54.970Z,59.80
2019-05-19T09:33:25.635Z,59.50
2019-05-19T09:35:55.845Z,60.00
2019-05-19T09:38:42.245Z,62.10
2019-05-19T09:41:12.399Z,61.90
2019-05-19T09:43:43.158Z,63.00
2019-05-19T09:46:14.039Z,64.30
2019-05-19T09:48:45.454Z,64.90
2019-05-19T09:51:15.760Z,64.90
2019-05-19T09:53:46.471Z,65.40
2019-05-19T09:56:16.878Z,66.60
2019-05-19T09:58:47.547Z,66.50
2019-05-19T10:01:17.962Z,65.20
2019-05-19T10:03:48.777Z,65.50
2019-05-19T10:06:18.992Z,65.00
2019-05-19T10:08:57.156Z,65.30
2019-05-19T10:12:05.947Z,64.80
2019-05-19T10:14:36.871Z,64.30
2019-05-19T10:17:07.088Z,64.10
2019-05-19T10:19:37.724Z,64.00
2019-05-19T10:22:08.167Z,63.10
2019-05-19T10:24:38.838Z,62.00
2019-05-19T10:27:09.140Z,59.90
2019-05-19T10:29:42.277Z,60.00
2019-05-19T10:32:12.570Z,59.70
2019-05-19T10:34:44.482Z,59.70
2019-05-19T10:37:16.945Z,59.20
2019-05-19T10:39:47.261Z,57.90
2019-05-19T10:42:17.646Z,57.40
2019-05-19T10:44:50.377Z,56.80
2019-05-19T10:47:20.763Z,55.80
2019-05-19T10:49:51.832Z,55.50
2019-05-19T10:52:22.877Z,55.40
2019-05-19T10:54:54.834Z,55.40
2019-05-19T10:57:25.005Z,55.30
2019-05-19T10:59:57.438Z,55.80
2019-05-19T11:02:28.975Z,56.40
2019-05-19T11:04:59.782Z,56.70
2019-05-19T11:07:30.061Z,57.20
2019-05-19T11:10:01.191Z,57.10
2019-05-19T11:12:31.669Z,56.80
2019-05-19T11:15:02.469Z,57.30
2019-05-19T11:17:32.834Z,57.40
2019-05-19T11:20:03.927Z,57.50
2019-05-19T11:22:34.362Z,57.60
2019-05-19T11:25:04.883Z,57.40
2019-05-19T11:27:35.418Z,56.70
2019-05-19T11:30:07.580Z,57.40
2019-05-19T11:32:38.947Z,56.30
2019-05-19T11:35:10.983Z,55.70
2019-05-19T11:37:41.320Z,55.30
2019-05-19T11:40:13.530Z,54.40
2019-05-19T11:42:46.824Z,53.30
2019-05-19T11:45:16.899Z,52.80
2019-05-19T11:47:47.186Z,51.90
2019-05-19T11:50:17.375Z,53.60
2019-05-19T11:52:48.166Z,53.50
2019-05-19T11:55:18.495Z,53.90
2019-05-19T11:57:48.791Z,54.50
2019-05-19T12:00:19.332Z,54.50
2019-05-19T12:02:49.699Z,54.90
2019-05-19T12:05:20.419Z,54.90
2019-05-19T12:07:51.026Z,54.20
2019-05-19T12:10:22.920Z,54.30
2019-05-19T12:12:53.349Z,54.50
2019-05-19T12:15:24.049Z,53.80
2019-05-19T12:17:54.296Z,53.50
2019-05-19T12:20:25.086Z,53.00
2019-05-19T12:22:55.579Z,53.00
2019-05-19T12:25:27.993Z,53.60
2019-05-19T12:27:58.350Z,54.00
2019-05-19T12:30:29.357Z,53.70
2019-05-19T12:32:59.875Z,53.70
2019-05-19T12:35:30.519Z,54.30
2019-05-19T12:38:01.391Z,53.50
2019-05-19T12:40:32.817Z,53.80
2019-05-19T12:43:03.212Z,53.90
2019-05-19T12:45:33.934Z,53.60
2019-05-19T12:48:04.416Z,53.80
2019-05-19T12:50:34.668Z,54.10
2019-05-19T12:53:07.061Z,54.30
2019-05-19T12:55:38.162Z,54.40
2019-05-19T12:58:08.393Z,54.10
2019-05-19T13:00:38.703Z,53.50
2019-05-19T13:03:09.022Z,52.40
2019-05-19T13:05:39.325Z,52.30
2019-05-19T13:08:11.598Z,52.30
2019-05-19T13:10:42.544Z,51.50
2019-05-19T13:13:13.722Z,51.30
2019-05-19T13:15:44.135Z,50.90
2019-05-19T13:18:14.418Z,50.90
2019-05-19T13:20:44.655Z,50.80
2019-05-19T13:23:14.845Z,50.80
2019-05-19T13:25:45.642Z,51.50
2019-05-19T13:28:15.893Z,50.70
2019-05-19T13:30:49.381Z,50.70
2019-05-19T13:33:21.581Z,51.40
2019-05-19T13:36:13.202Z,51.40
2019-05-19T13:38:51.673Z,51.90
2019-05-19T13:41:35.305Z,51.50
2019-05-19T13:44:33.224Z,50.50
2019-05-19T13:47:04.085Z,50.70
2019-05-19T13:49:35.792Z,51.60
2019-05-19T13:52:08.937Z,51.20
2019-05-19T13:54:46.481Z,51.10
2019-05-19T13:57:17.687Z,50.60
2019-05-19T13:59:48.376Z,50.30
2019-05-19T14:02:19.348Z,50.70
2019-05-19T14:04:49.942Z,50.20
2019-05-19T14:07:20.206Z,49.80
2019-05-19T14:09:55.513Z,50.00
2019-05-19T14:12:26.024Z,50.20
2019-05-19T14:14:56.747Z,50.70
2019-05-19T14:17:26.968Z,51.10
2019-05-19T14:19:57.734Z,50.30
2019-05-19T14:22:28.128Z,50.40
2019-05-19T14:24:58.329Z,51.70
2019-05-19T14:27:30.880Z,51.70
2019-05-19T14:30:01.344Z,52.10
2019-05-19T14:32:31.580Z,52.40
2019-05-19T14:35:02.494Z,53.10
2019-05-19T14:37:32.919Z,53.80
2019-05-19T14:40:03.972Z,54.00
2019-05-19T14:42:46.403Z,54.10
2019-05-19T14:45:16.818Z,54.10
2019-05-19T14:47:47.143Z,53.80
2019-05-19T14:50:20.160Z,53.70
2019-05-19T14:52:52.086Z,53.50
2019-05-19T14:55:23.016Z,53.00
2019-05-19T14:57:53.275Z,53.00
2019-05-19T15:00:24.608Z,53.20
2019-05-19T15:02:54.751Z,53.40
2019-05-19T15:05:25.350Z,53.70
2019-05-19T15:07:55.738Z,54.10
2019-05-19T15:10:26.319Z,54.30
2019-05-19T15:12:56.641Z,54.20
2019-05-19T15:15:27.062Z,54.20
2019-05-19T15:17:57.249Z,54.00
2019-05-19T15:20:29.756Z,53.60
2019-05-19T15:23:02.918Z,53.60
2019-05-19T15:25:33.281Z,53.50
2019-05-19T15:28:05.352Z,54.00
2019-05-19T15:30:36.180Z,54.40
2019-05-19T15:33:06.808Z,54.10
2019-05-19T15:35:37.351Z,53.60
2019-05-19T15:38:08.448Z,53.80
2019-05-19T15:40:40.328Z,54.80
2019-05-19T15:43:10.572Z,55.00
2019-05-19T15:45:41.006Z,55.10
2019-05-19T15:48:11.361Z,55.10
2019-05-19T15:50:41.854Z,55.60
2019-05-19T15:53:12.362Z,53.70
2019-05-19T15:55:42.728Z,52.90
2019-05-19T15:58:16.649Z,51.70
2019-05-19T16:00:46.034Z,50.80
2019-05-19T16:03:17.575Z,49.50
2019-05-19T16:05:50.347Z,47.30
2019-05-19T16:08:21.005Z,47.00
2019-05-19T16:10:51.167Z,44.80
2019-05-19T16:13:22.176Z,45.20
2019-05-19T16:15:55.477Z,46.30
2019-05-19T16:18:26.333Z,47.10
2019-05-19T16:20:56.887Z,47.60
2019-05-19T16:23:27.802Z,47.80
2019-05-19T16:25:57.970Z,48.10
2019-05-19T16:28:31.048Z,48.40
2019-05-19T16:31:01.352Z,48.80
2019-05-19T16:33:32.133Z,49.10
2019-05-19T16:36:02.903Z,48.90
2019-05-19T16:38:34.004Z,48.10
2019-05-19T16:41:04.211Z,47.80
2019-05-19T16:43:34.583Z,47.70
2019-05-19T16:46:05.085Z,48.20
2019-05-19T16:48:35.335Z,48.40
2019-05-19T16:51:05.682Z,48.40
2019-05-19T16:53:36.101Z,48.40
2019-05-19T16:56:07.086Z,48.70
2019-05-19T16:58:45.048Z,48.60
2019-05-19T17:01:10.041Z,48.60
2019-05-19T17:03:40.465Z,48.60
2019-05-19T17:06:11.122Z,48.90
2019-05-19T17:08:44.734Z,49.70
2019-05-19T17:11:18.613Z,51.50
2019-05-19T17:13:49.344Z,53.50
2019-05-19T17:16:20.400Z,54.70
2019-05-19T17:18:50.623Z,55.90
2019-05-19T17:21:20.808Z,57.20
2019-05-19T17:23:51.559Z,58.40
2019-05-19T17:26:22.011Z,58.70
2019-05-19T17:29:00.739Z,59.50
2019-05-19T17:31:24.799Z,59.40
2019-05-19T17:33:55.838Z,59.60
2019-05-19T17:36:27.491Z,63.70
2019-05-19T17:38:58.767Z,64.50
2019-05-19T17:41:29.066Z,68.00
2019-05-19T17:44:01.132Z,69.70
2019-05-19T17:46:35.016Z,71.50
2019-05-19T17:49:05.372Z,72.50
2019-05-19T17:51:36.009Z,74.40
2019-05-19T17:54:07.551Z,75.90
2019-05-19T17:56:39.028Z,76.40
2019-05-19T17:59:16.421Z,76.90
2019-05-19T18:01:41.584Z,77.40
2019-05-19T18:04:12.733Z,78.00
2019-05-19T18:06:44.818Z,78.90
2019-05-19T18:09:15.118Z,79.40
2019-05-19T18:11:46.771Z,79.10
2019-05-19T18:14:16.958Z,78.90
2019-05-19T18:16:47.441Z,78.90
2019-05-19T18:19:17.540Z,79.40
2019-05-19T18:21:48.278Z,80.20
2019-05-19T18:24:18.435Z,80.80
2019-05-19T18:26:48.986Z,81.20
2019-05-19T18:29:30.505Z,81.80
2019-05-19T18:31:51.177Z,82.10
2019-05-19T18:34:22.819Z,82.20
2019-05-19T18:36:53.029Z,82.40
2019-05-19T18:39:23.649Z,82.50
2019-05-19T18:41:53.850Z,83.10
2019-05-19T18:44:26.607Z,83.20
2019-05-19T18:47:05.813Z,83.80
2019-05-19T18:49:36.009Z,84.60
2019-05-19T18:52:06.312Z,85.00
2019-05-19T18:54:36.825Z,85.10
2019-05-19T18:57:06.941Z,86.00
2019-05-19T18:59:46.806Z,85.30
2019-05-19T19:02:09.491Z,85.70
2019-05-19T19:04:39.688Z,85.20
2019-05-19T19:07:09.854Z,85.60
2019-05-19T19:09:40.264Z,85.40
2019-05-19T19:12:11.183Z,85.60
2019-05-19T19:14:41.731Z,86.10
2019-05-19T19:17:11.954Z,86.20
2019-05-19T19:19:42.391Z,85.40
2019-05-19T19:22:12.670Z,85.40
2019-05-19T19:24:42.787Z,85.00
2019-05-19T19:27:13.208Z,84.80
2019-05-19T19:29:43.289Z,84.90
2019-05-19T19:32:13.484Z,85.20
2019-05-19T19:34:43.627Z,85.90
2019-05-19T19:37:13.668Z,87.60
2019-05-19T19:39:44.299Z,88.90
2019-05-19T19:42:14.422Z,90.10
2019-05-19T19:44:44.808Z,90.60
2019-05-19T19:47:14.953Z,90.70
2019-05-19T19:49:45.233Z,91.20
2019-05-19T19:52:15.762Z,91.70
2019-05-19T19:54:45.996Z,91.90
2019-05-19T19:57:16.141Z,92.00
2019-05-19T19:59:46.829Z,92.20
2019-05-19T20:02:17.070Z,92.40
2019-05-19T20:04:47.215Z,92.90
2019-05-19T20:07:17.339Z,92.50
2019-05-19T20:09:47.576Z,92.40
2019-05-19T20:12:19.180Z,92.10
2019-05-19T20:14:49.398Z,92.30
2019-05-19T20:17:19.536Z,92.20
2019-05-19T20:19:49.774Z,92.20
2019-05-19T20:22:21.549Z,92.20
2019-05-19T20:24:52.038Z,92.20
2019-05-19T20:27:23.680Z,92.20
2019-05-19T20:29:53.959Z,92.40
2019-05-19T20:32:24.039Z,92.70
2019-05-19T20:34:54.238Z,93.00
2019-05-19T20:37:24.294Z,93.20
2019-05-19T20:39:54.545Z,93.40
2019-05-19T20:42:24.725Z,93.60
2019-05-19T20:44:56.459Z,93.60
2019-05-19T20:47:26.724Z,93.80
2019-05-19T20:49:56.801Z,93.80
2019-05-19T20:52:27.301Z,93.80
2019-05-19T20:54:57.441Z,93.80
2019-05-19T20:57:27.564Z,93.80
2019-05-19T20:59:57.761Z,93.80
2019-05-19T21:02:27.783Z,93.60
2019-05-19T21:04:58.325Z,93.30
2019-05-19T21:07:28.432Z,93.30
2019-05-19T21:09:58.997Z,93.40
2019-05-19T21:12:29.195Z,93.50
2019-05-19T21:14:59.593Z,93.20
2019-05-19T21:17:29.775Z,93.20
2019-05-19T21:19:59.949Z,93.20
2019-05-19T21:22:30.020Z,93.10
2019-05-19T21:25:00.574Z,93.30
2019-05-19T21:27:30.605Z,93.20
2019-05-19T21:30:00.733Z,93.40
2019-05-19T21:32:30.853Z,93.40
2019-05-19T21:35:00.976Z,93.30
2019-05-19T21:37:32.955Z,93.00
2019-05-19T21:40:03.048Z,92.80
2019-05-19T21:42:33.343Z,92.70
2019-05-19T21:45:03.541Z,92.60
2019-05-19T21:47:34.044Z,92.50
2019-05-19T21:50:04.971Z,92.50
2019-05-19T21:52:35.230Z,92.60
2019-05-19T21:55:06.026Z,92.60
2019-05-19T21:57:36.328Z,92.50
2019-05-19T22:00:08.826Z,92.50
2019-05-19T22:02:41.007Z,92.60
2019-05-19T22:05:11.819Z,92.60
2019-05-19T22:07:59.971Z,92.70
2019-05-19T22:10:30.132Z,92.70
2019-05-19T22:13:00.623Z,92.80
2019-05-19T22:15:30.651Z,93.00
2019-05-19T22:18:01.159Z,93.20
2019-05-19T22:20:31.199Z,93.50
2019-05-19T22:23:01.402Z,93.60
2019-05-19T22:25:31.877Z,93.50
2019-05-19T22:28:01.879Z,93.30
2019-05-19T22:30:32.161Z,93.00
2019-05-19T22:33:02.314Z,93.00
2019-05-19T22:35:32.726Z,92.90
2019-05-19T22:38:02.789Z,92.90
2019-05-19T22:40:32.929Z,92.80
2019-05-19T22:43:03.030Z,93.10
2019-05-19T22:45:35.751Z,92.90
2019-05-19T22:48:06.139Z,93.00
2019-05-19T22:50:36.181Z,92.60
2019-05-19T22:53:06.295Z,92.40
2019-05-19T22:55:36.443Z,92.30
2019-05-19T22:58:06.514Z,92.30
2019-05-19T23:00:37.038Z,92.30
2019-05-19T23:03:07.027Z,92.30
2019-05-19T23:05:37.061Z,92.30
2019-05-19T23:08:08.610Z,92.40
2019-05-19T23:10:38.627Z,92.30
2019-05-19T23:13:08.713Z,92.20
2019-05-19T23:15:38.893Z,92.10
2019-05-19T23:18:10.182Z,92.00
2019-05-19T23:20:40.414Z,92.20
2019-05-19T23:23:10.864Z,92.30
2019-05-19T23:25:40.940Z,92.30
2019-05-19T23:28:12.530Z,92.40
2019-05-19T23:30:42.600Z,92.00
2019-05-19T23:33:12.612Z,91.90
2019-05-19T23:35:42.933Z,92.00
2019-05-19T23:38:12.930Z,91.90
2019-05-19T23:40:43.372Z,91.90
2019-05-19T23:43:13.525Z,91.80
2019-05-19T23:45:45.096Z,91.80
2019-05-19T23:48:15.536Z,91.90
2019-05-19T23:50:45.624Z,91.60
2019-05-19T23:53:16.110Z,91.50
2019-05-19T23:55:46.149Z,91.60
2019-05-19T23:58:16.222Z,92.00
